Bozeman, MT

11:10 PM MDT on May 25, 2015 (GMT -0600)
Bon-Ton | | Change Station
CLOSE
Current Station
Personal Weather Station
Location: Bozeman, MT
Elevation: 4884 ft
Nearby Weather Stations

Elev 4884 ft 45.67 °N, 111.04 °W | Updated 3 seconds ago

Partly Cloudy
Partly Cloudy
55.4 °F
Feels Like 55.4 °F
N
2.0
Wind Variable Wind from WNW
Gusts 8.0 mph

Today
High -- | Low -- °F
--% Chance of Precip.
Yesterday
High -- | Low -- °F
Precip. -- in
5:43 AM 8:59 PM
First Quarter, 55% visible
Pressure 29.88 in
Visibility 10.0 miles
Clouds Mostly Cloudy 6500 ft
Mostly Cloudy 8000 ft
Overcast 10000 ft
Dew Point 45 °F
Humidity 69%
Rainfall 0.00 in
Snow Depth Not available.
UV 0.0 out of 12
Pollen 6.60 out of 12
Air Quality Not available.
Flu Activity Sporadic
METAR KBZN 260456Z 24010KT 10SM BKN065 BKN080 OVC100 13/07 A2993 RMK AO2 WSHFT 0353 RAB39E51 SLP117 P0000 T01330067

More Conditions Fewer Conditions

Pressure 29.88 in
Visibility 10.0 miles
Clouds Mostly Cloudy 6500 ft
Mostly Cloudy 8000 ft
Overcast 10000 ft
Dew Point 45 °F
Humidity 69%
Rainfall 0.00 in
Snow Depth Not available.
UV 0.0 out of 12
Pollen 6.60 out of 12
Air Quality Not available.
Flu Activity Sporadic
METAR KBZN 260456Z 24010KT 10SM BKN065 BKN080 OVC100 13/07 A2993 RMK AO2 WSHFT 0353 RAB39E51 SLP117 P0000 T01330067

More Conditions Fewer Conditions

10-Day Weather Forecast

Almanac

Astronomy

May. 25, 2015 Rise Set
Actual Time
Civil Twilight
Nautical Twilight
Astronomical Twilight
Moon
Length of Visible Light
Length of Day
Tomorrow will be .
, % of the Moon is Illuminated

Today's Extremes

State Highs State Lows

Community

WunderPhotos

Upload Photos

1,824,286 photos uploaded!

WunderBlogs® & News

Nearby

Air Quality

  Air Quality AQ Index Pollutant
Not available.

Snow Depth

Station Depth Elevation

Earthquake Activity

City Distance Mag. Time & Date
Minimum magnitude displayed is 2.5.

Coastal Water Temperatures

Place Temperature

Stations

Nearby Weather Stations

Station Location Temp. Windchill Dew Point Humidity Wind Precip. Elev Updated Type